sensor_id;sensor_type;location;lat;lon;timestamp;pressure;altitude;pressure_sealevel;temperature
75273;BMP280;63869;52.344;16.928;2024-02-21T00:00:47;101281.19;;;7.32
75273;BMP280;63869;52.344;16.928;2024-02-21T00:03:12;101279.28;;;7.33
75273;BMP280;63869;52.344;16.928;2024-02-21T00:05:38;101274.28;;;7.27
75273;BMP280;63869;52.344;16.928;2024-02-21T00:08:03;101203.56;;;6.89
75273;BMP280;63869;52.344;16.928;2024-02-21T00:10:28;101266.72;;;7.30
75273;BMP280;63869;52.344;16.928;2024-02-21T00:12:56;101221.56;;;7.03
75273;BMP280;63869;52.344;16.928;2024-02-21T00:15:22;101186.41;;;6.80
75273;BMP280;63869;52.344;16.928;2024-02-21T00:17:47;101255.31;;;7.29
75273;BMP280;63869;52.344;16.928;2024-02-21T00:20:13;101259.13;;;7.32
75273;BMP280;63869;52.344;16.928;2024-02-21T00:22:39;101190.94;;;6.79
75273;BMP280;63869;52.344;16.928;2024-02-21T00:25:05;101230.63;;;6.99
75273;BMP280;63869;52.344;16.928;2024-02-21T00:27:31;101245.63;;;7.14
75273;BMP280;63869;52.344;16.928;2024-02-21T00:29:57;101233.38;;;7.06
75273;BMP280;63869;52.344;16.928;2024-02-21T00:32:22;101238.41;;;7.14
75273;BMP280;63869;52.344;16.928;2024-02-21T00:34:48;101221.63;;;7.07
75273;BMP280;63869;52.344;16.928;2024-02-21T00:37:13;101246.09;;;7.23
75273;BMP280;63869;52.344;16.928;2024-02-21T00:39:38;101220.81;;;7.03
75273;BMP280;63869;52.344;16.928;2024-02-21T00:42:04;101233.41;;;7.09
75273;BMP280;63869;52.344;16.928;2024-02-21T00:44:32;101222.38;;;7.07
75273;BMP280;63869;52.344;16.928;2024-02-21T00:46:57;101205.56;;;6.96
75273;BMP280;63869;52.344;16.928;2024-02-21T00:49:23;101218.59;;;7.08
75273;BMP280;63869;52.344;16.928;2024-02-21T00:51:48;101222.47;;;7.14
75273;BMP280;63869;52.344;16.928;2024-02-21T00:54:13;101222.09;;;7.16
75273;BMP280;63869;52.344;16.928;2024-02-21T00:56:39;101220.22;;;7.16
75273;BMP280;63869;52.344;16.928;2024-02-21T00:59:04;101206.91;;;7.16
75273;BMP280;63869;52.344;16.928;2024-02-21T01:01:29;101195.09;;;7.14
75273;BMP280;63869;52.344;16.928;2024-02-21T01:03:55;101205.50;;;7.26
75273;BMP280;63869;52.344;16.928;2024-02-21T01:06:20;101198.97;;;7.20
75273;BMP280;63869;52.344;16.928;2024-02-21T01:08:47;101193.25;;;7.18
75273;BMP280;63869;52.344;16.928;2024-02-21T01:11:13;101199.81;;;7.27
75273;BMP280;63869;52.344;16.928;2024-02-21T01:13:38;101158.94;;;7.06
75273;BMP280;63869;52.344;16.928;2024-02-21T01:16:04;101180.81;;;7.25
75273;BMP280;63869;52.344;16.928;2024-02-21T01:18:31;101180.09;;;7.36
75273;BMP280;63869;52.344;16.928;2024-02-21T01:20:57;101145.31;;;7.11
75273;BMP280;63869;52.344;16.928;2024-02-21T01:23:22;101182.38;;;7.30
75273;BMP280;63869;52.344;16.928;2024-02-21T01:25:47;101167.91;;;7.27
75273;BMP280;63869;52.344;16.928;2024-02-21T01:28:13;101171.72;;;7.30
75273;BMP280;63869;52.344;16.928;2024-02-21T01:30:38;101148.78;;;7.15
75273;BMP280;63869;52.344;16.928;2024-02-21T01:33:04;101165.63;;;7.30
75273;BMP280;63869;52.344;16.928;2024-02-21T01:35:29;101160.63;;;7.24
75273;BMP280;63869;52.344;16.928;2024-02-21T01:37:54;101126.53;;;6.93
75273;BMP280;63869;52.344;16.928;2024-02-21T01:40:19;101151.06;;;7.16
75273;BMP280;63869;52.344;16.928;2024-02-21T01:42:45;101131.59;;;7.05
75273;BMP280;63869;52.344;16.928;2024-02-21T01:45:11;101130.47;;;7.06
75273;BMP280;63869;52.344;16.928;2024-02-21T01:47:37;101155.66;;;7.23
75273;BMP280;63869;52.344;16.928;2024-02-21T01:50:03;101158.41;;;7.26
75273;BMP280;63869;52.344;16.928;2024-02-21T01:52:29;101159.53;;;7.25
75273;BMP280;63869;52.344;16.928;2024-02-21T01:54:55;101145.38;;;7.18
75273;BMP280;63869;52.344;16.928;2024-02-21T01:57:22;101142.72;;;7.21
75273;BMP280;63869;52.344;16.928;2024-02-21T01:59:47;101119.91;;;7.13
75273;BMP280;63869;52.344;16.928;2024-02-21T02:02:13;101156.56;;;7.38
75273;BMP280;63869;52.344;16.928;2024-02-21T02:04:38;101152.75;;;7.35
75273;BMP280;63869;52.344;16.928;2024-02-21T02:07:06;101166.47;;;7.41
75273;BMP280;63869;52.344;16.928;2024-02-21T02:09:34;101144.03;;;7.38
75273;BMP280;63869;52.344;16.928;2024-02-21T02:12:01;101148.66;;;7.41
75273;BMP280;63869;52.344;16.928;2024-02-21T02:14:26;101120.72;;;7.24
75273;BMP280;63869;52.344;16.928;2024-02-21T02:16:52;101133.00;;;7.36
75273;BMP280;63869;52.344;16.928;2024-02-21T02:19:17;101147.53;;;7.46
75273;BMP280;63869;52.344;16.928;2024-02-21T02:21:46;101130.69;;;7.31
75273;BMP280;63869;52.344;16.928;2024-02-21T02:24:13;101134.50;;;7.34
75273;BMP280;63869;52.344;16.928;2024-02-21T02:26:39;101113.19;;;7.26
75273;BMP280;63869;52.344;16.928;2024-02-21T02:29:05;101114.31;;;7.25
75273;BMP280;63869;52.344;16.928;2024-02-21T02:31:30;101070.78;;;7.00
75273;BMP280;63869;52.344;16.928;2024-02-21T02:33:55;101106.34;;;7.25
75273;BMP280;63869;52.344;16.928;2024-02-21T02:36:21;101103.56;;;7.15
75273;BMP280;63869;52.344;16.928;2024-02-21T02:38:46;101113.56;;;7.28
75273;BMP280;63869;52.344;16.928;2024-02-21T02:41:11;101107.03;;;7.19
75273;BMP280;63869;52.344;16.928;2024-02-21T02:43:37;101120.81;;;7.32
75273;BMP280;63869;52.344;16.928;2024-02-21T02:46:03;101107.84;;;7.26
75273;BMP280;63869;52.344;16.928;2024-02-21T02:48:29;101078.09;;;7.10
75273;BMP280;63869;52.344;16.928;2024-02-21T02:50:54;101113.97;;;7.34
75273;BMP280;63869;52.344;16.928;2024-02-21T02:53:19;101081.09;;;7.09
75273;BMP280;63869;52.344;16.928;2024-02-21T02:55:45;101105.63;;;7.36
75273;BMP280;63869;52.344;16.928;2024-02-21T02:58:10;101046.09;;;6.96
75273;BMP280;63869;52.344;16.928;2024-02-21T03:00:35;101075.53;;;7.21
75273;BMP280;63869;52.344;16.928;2024-02-21T03:03:01;101115.22;;;7.44
75273;BMP280;63869;52.344;16.928;2024-02-21T03:05:29;101079.69;;;7.22
75273;BMP280;63869;52.344;16.928;2024-02-21T03:07:54;101093.47;;;7.31
75273;BMP280;63869;52.344;16.928;2024-02-21T03:10:20;101106.13;;;7.45
75273;BMP280;63869;52.344;16.928;2024-02-21T03:12:46;101090.91;;;7.42
75273;BMP280;63869;52.344;16.928;2024-02-21T03:15:12;101073.69;;;7.28
75273;BMP280;63869;52.344;16.928;2024-02-21T03:17:37;101101.16;;;7.47
75273;BMP280;63869;52.344;16.928;2024-02-21T03:20:04;101092.81;;;7.45
75273;BMP280;63869;52.344;16.928;2024-02-21T03:22:35;101064.56;;;7.30
75273;BMP280;63869;52.344;16.928;2024-02-21T03:25:00;101063.78;;;7.25
75273;BMP280;63869;52.344;16.928;2024-02-21T03:27:26;101030.19;;;7.07
75273;BMP280;63869;52.344;16.928;2024-02-21T03:29:51;101006.88;;;6.89
75273;BMP280;63869;52.344;16.928;2024-02-21T03:32:18;101069.16;;;7.33
75273;BMP280;63869;52.344;16.928;2024-02-21T03:34:43;101070.66;;;7.30
75273;BMP280;63869;52.344;16.928;2024-02-21T03:37:09;101062.31;;;7.32
75273;BMP280;63869;52.344;16.928;2024-02-21T03:39:34;101072.22;;;7.38
75273;BMP280;63869;52.344;16.928;2024-02-21T03:41:59;101057.34;;;7.30
75273;BMP280;63869;52.344;16.928;2024-02-21T03:44:29;101076.03;;;7.41
75273;BMP280;63869;52.344;16.928;2024-02-21T03:46:54;101069.91;;;7.37
75273;BMP280;63869;52.344;16.928;2024-02-21T03:49:20;101050.47;;;7.25
75273;BMP280;63869;52.344;16.928;2024-02-21T03:51:45;101030.25;;;7.14
75273;BMP280;63869;52.344;16.928;2024-02-21T03:54:10;101052.41;;;7.28
75273;BMP280;63869;52.344;16.928;2024-02-21T03:56:39;101060.81;;;7.38
75273;BMP280;63869;52.344;16.928;2024-02-21T03:59:05;101050.56;;;7.40
75273;BMP280;63869;52.344;16.928;2024-02-21T04:01:31;101037.63;;;7.31
75273;BMP280;63869;52.344;16.928;2024-02-21T04:03:58;101037.63;;;7.31
75273;BMP280;63869;52.344;16.928;2024-02-21T04:06:23;101050.25;;;7.45
75273;BMP280;63869;52.344;16.928;2024-02-21T04:08:48;101022.38;;;7.28
75273;BMP280;63869;52.344;16.928;2024-02-21T04:11:13;101052.53;;;7.50
75273;BMP280;63869;52.344;16.928;2024-02-21T04:13:39;101009.84;;;7.28
75273;BMP280;63869;52.344;16.928;2024-02-21T04:16:04;101048.41;;;7.56
75273;BMP280;63869;52.344;16.928;2024-02-21T04:18:30;101025.09;;;7.39
75273;BMP280;63869;52.344;16.928;2024-02-21T04:20:56;101035.78;;;7.46
75273;BMP280;63869;52.344;16.928;2024-02-21T04:23:21;101015.59;;;7.38
75273;BMP280;63869;52.344;16.928;2024-02-21T04:25:46;101031.63;;;7.45
75273;BMP280;63869;52.344;16.928;2024-02-21T04:28:12;101015.28;;;7.43
75273;BMP280;63869;52.344;16.928;2024-02-21T04:30:37;100995.03;;;7.27
75273;BMP280;63869;52.344;16.928;2024-02-21T04:33:02;101023.63;;;7.41
75273;BMP280;63869;52.344;16.928;2024-02-21T04:35:28;101019.50;;;7.54
75273;BMP280;63869;52.344;16.928;2024-02-21T04:37:53;101019.06;;;7.45
75273;BMP280;63869;52.344;16.928;2024-02-21T04:40:18;100989.75;;;7.31
75273;BMP280;63869;52.344;16.928;2024-02-21T04:42:45;100984.72;;;7.22
75273;BMP280;63869;52.344;16.928;2024-02-21T04:45:10;101011.88;;;7.53
75273;BMP280;63869;52.344;16.928;2024-02-21T04:47:36;101012.25;;;7.48
75273;BMP280;63869;52.344;16.928;2024-02-21T04:50:02;100987.81;;;7.28
75273;BMP280;63869;52.344;16.928;2024-02-21T04:52:27;100977.94;;;7.28
75273;BMP280;63869;52.344;16.928;2024-02-21T04:54:53;100980.91;;;7.20
75273;BMP280;63869;52.344;16.928;2024-02-21T04:57:18;100931.38;;;6.98
75273;BMP280;63869;52.344;16.928;2024-02-21T04:59:44;100968.75;;;7.19
75273;BMP280;63869;52.344;16.928;2024-02-21T05:02:10;100990.13;;;7.37
75273;BMP280;63869;52.344;16.928;2024-02-21T05:04:36;100971.81;;;7.24
75273;BMP280;63869;52.344;16.928;2024-02-21T05:07:03;100986.31;;;7.34
75273;BMP280;63869;52.344;16.928;2024-02-21T05:09:29;100987.91;;;7.46
75273;BMP280;63869;52.344;16.928;2024-02-21T05:11:56;100961.16;;;7.24
75273;BMP280;63869;52.344;16.928;2024-02-21T05:14:21;100970.00;;;7.32
75273;BMP280;63869;52.344;16.928;2024-02-21T05:16:47;100989.06;;;7.45
75273;BMP280;63869;52.344;16.928;2024-02-21T05:19:12;100968.84;;;7.37
75273;BMP280;63869;52.344;16.928;2024-02-21T05:21:37;100984.88;;;7.47
75273;BMP280;63869;52.344;16.928;2024-02-21T05:24:03;100965.03;;;7.31
75273;BMP280;63869;52.344;16.928;2024-02-21T05:26:29;100963.50;;;7.33
75273;BMP280;63869;52.344;16.928;2024-02-21T05:28:54;100965.44;;;7.33
75273;BMP280;63869;52.344;16.928;2024-02-21T05:31:20;100969.25;;;7.39
75273;BMP280;63869;52.344;16.928;2024-02-21T05:33:46;100964.66;;;7.36
75273;BMP280;63869;52.344;16.928;2024-02-21T05:36:12;100930.00;;;7.18
75273;BMP280;63869;52.344;16.928;2024-02-21T05:38:38;100978.06;;;7.50
75273;BMP280;63869;52.344;16.928;2024-02-21T05:41:03;100970.06;;;7.50
75273;BMP280;63869;52.344;16.928;2024-02-21T05:43:29;100963.59;;;7.51
75273;BMP280;63869;52.344;16.928;2024-02-21T05:45:54;100935.41;;;7.36
75273;BMP280;63869;52.344;16.928;2024-02-21T05:48:20;100957.13;;;7.41
75273;BMP280;63869;52.344;16.928;2024-02-21T05:50:45;100962.47;;;7.48
75273;BMP280;63869;52.344;16.928;2024-02-21T05:53:11;100948.34;;;7.37
75273;BMP280;63869;52.344;16.928;2024-02-21T05:55:36;100911.75;;;7.16
75273;BMP280;63869;52.344;16.928;2024-02-21T05:58:03;100933.13;;;7.34
75273;BMP280;63869;52.344;16.928;2024-02-21T06:00:28;100941.94;;;7.42
75273;BMP280;63869;52.344;16.928;2024-02-21T06:02:54;100941.94;;;7.42
75273;BMP280;63869;52.344;16.928;2024-02-21T06:05:20;100933.13;;;7.31
75273;BMP280;63869;52.344;16.928;2024-02-21T06:07:45;100945.69;;;7.41
75273;BMP280;63869;52.344;16.928;2024-02-21T06:10:10;100940.75;;;7.39
75273;BMP280;63869;52.344;16.928;2024-02-21T06:12:36;100957.53;;;7.54
75273;BMP280;63869;52.344;16.928;2024-02-21T06:15:02;100942.31;;;7.44
75273;BMP280;63869;52.344;16.928;2024-02-21T06:17:28;100957.56;;;7.57
75273;BMP280;63869;52.344;16.928;2024-02-21T06:19:53;100947.66;;;7.54
75273;BMP280;63869;52.344;16.928;2024-02-21T06:22:19;100930.09;;;7.39
75273;BMP280;63869;52.344;16.928;2024-02-21T06:24:44;100958.34;;;7.61
75273;BMP280;63869;52.344;16.928;2024-02-21T06:27:18;100955.28;;;7.59
75273;BMP280;63869;52.344;16.928;2024-02-21T06:29:50;100937.78;;;7.55
75273;BMP280;63869;52.344;16.928;2024-02-21T06:32:15;100946.16;;;7.57
75273;BMP280;63869;52.344;16.928;2024-02-21T06:34:40;100929.41;;;7.49
75273;BMP280;63869;52.344;16.928;2024-02-21T06:37:06;100934.34;;;7.51
75273;BMP280;63869;52.344;16.928;2024-02-21T06:39:31;100913.38;;;7.35
75273;BMP280;63869;52.344;16.928;2024-02-21T06:42:02;100932.84;;;7.53
75273;BMP280;63869;52.344;16.928;2024-02-21T06:44:28;100909.25;;;7.45
75273;BMP280;63869;52.344;16.928;2024-02-21T06:46:53;100877.59;;;7.18
75273;BMP280;63869;52.344;16.928;2024-02-21T06:49:27;100927.19;;;7.69
75273;BMP280;63869;52.344;16.928;2024-02-21T06:51:52;100924.19;;;7.74
75273;BMP280;63869;52.344;16.928;2024-02-21T06:54:17;100873.16;;;7.44
75273;BMP280;63869;52.344;16.928;2024-02-21T06:56:43;100896.75;;;7.56
75273;BMP280;63869;52.344;16.928;2024-02-21T06:59:08;100926.47;;;7.83
75273;BMP280;63869;52.344;16.928;2024-02-21T07:01:33;100883.78;;;7.51
75273;BMP280;63869;52.344;16.928;2024-02-21T07:03:59;100928.00;;;7.87
75273;BMP280;63869;52.344;16.928;2024-02-21T07:06:27;100928.44;;;7.89
75273;BMP280;63869;52.344;16.928;2024-02-21T07:08:52;100932.97;;;7.92
75273;BMP280;63869;52.344;16.928;2024-02-21T07:11:18;100907.84;;;7.76
75273;BMP280;63869;52.344;16.928;2024-02-21T07:13:43;100891.50;;;7.77
75273;BMP280;63869;52.344;16.928;2024-02-21T07:16:08;100894.16;;;7.77
75273;BMP280;63869;52.344;16.928;2024-02-21T07:18:34;100904.81;;;7.88
75273;BMP280;63869;52.344;16.928;2024-02-21T07:20:59;100889.97;;;7.76
75273;BMP280;63869;52.344;16.928;2024-02-21T07:23:25;100909.38;;;7.87
75273;BMP280;63869;52.344;16.928;2024-02-21T07:25:50;100917.78;;;7.89
75273;BMP280;63869;52.344;16.928;2024-02-21T07:28:16;100917.00;;;7.96
75273;BMP280;63869;52.344;16.928;2024-02-21T07:30:42;100891.88;;;7.83
75273;BMP280;63869;52.344;16.928;2024-02-21T07:33:07;100902.53;;;7.93
75273;BMP280;63869;52.344;16.928;2024-02-21T07:35:33;100904.47;;;8.00
75273;BMP280;63869;52.344;16.928;2024-02-21T07:37:58;100874.75;;;7.84
75273;BMP280;63869;52.344;16.928;2024-02-21T07:40:24;100885.84;;;7.89
75273;BMP280;63869;52.344;16.928;2024-02-21T07:42:49;100875.53;;;7.91
75273;BMP280;63869;52.344;16.928;2024-02-21T07:45:15;100892.28;;;7.99
75273;BMP280;63869;52.344;16.928;2024-02-21T07:47:40;100896.88;;;8.06
75273;BMP280;63869;52.344;16.928;2024-02-21T07:50:06;100851.56;;;7.77
75273;BMP280;63869;52.344;16.928;2024-02-21T07:52:32;100884.31;;;7.99
75273;BMP280;63869;52.344;16.928;2024-02-21T07:54:57;100903.31;;;8.12
75273;BMP280;63869;52.344;16.928;2024-02-21T07:57:23;100909.78;;;8.14
75273;BMP280;63869;52.344;16.928;2024-02-21T07:59:48;100892.69;;;8.12
75273;BMP280;63869;52.344;16.928;2024-02-21T08:02:16;100881.66;;;8.17
75273;BMP280;63869;52.344;16.928;2024-02-21T08:04:42;100843.59;;;7.95
75273;BMP280;63869;52.344;16.928;2024-02-21T08:07:08;100828.41;;;7.88
75273;BMP280;63869;52.344;16.928;2024-02-21T08:09:33;100882.44;;;8.21
75273;BMP280;63869;52.344;16.928;2024-02-21T08:12:00;100872.91;;;8.16
75273;BMP280;63869;52.344;16.928;2024-02-21T08:14:25;100855.78;;;8.14
75273;BMP280;63869;52.344;16.928;2024-02-21T08:16:51;100877.09;;;8.32
75273;BMP280;63869;52.344;16.928;2024-02-21T08:19:18;100883.19;;;8.39
75273;BMP280;63869;52.344;16.928;2024-02-21T08:21:44;100867.97;;;8.40
75273;BMP280;63869;52.344;16.928;2024-02-21T08:24:12;100898.38;;;8.63
75273;BMP280;63869;52.344;16.928;2024-02-21T08:26:43;100886.94;;;8.67
75273;BMP280;63869;52.344;16.928;2024-02-21T08:29:10;100884.69;;;8.83
75273;BMP280;63869;52.344;16.928;2024-02-21T08:31:35;100882.75;;;8.76
75273;BMP280;63869;52.344;16.928;2024-02-21T08:34:01;100875.13;;;8.78
75273;BMP280;63869;52.344;16.928;2024-02-21T08:36:31;100908.63;;;8.86
75273;BMP280;63869;52.344;16.928;2024-02-21T08:38:57;100898.69;;;8.94
75273;BMP280;63869;52.344;16.928;2024-02-21T08:41:24;100894.88;;;8.95
75273;BMP280;63869;52.344;16.928;2024-02-21T08:43:51;100876.59;;;8.97
75273;BMP280;63869;52.344;16.928;2024-02-21T08:46:17;100880.78;;;8.98
75273;BMP280;63869;52.344;16.928;2024-02-21T08:51:14;100859.88;;;8.89
75273;BMP280;63869;52.344;16.928;2024-02-21T08:53:49;100869.78;;;8.92
75273;BMP280;63869;52.344;16.928;2024-02-21T08:56:15;100843.19;;;8.60
75273;BMP280;63869;52.344;16.928;2024-02-21T08:58:41;100859.53;;;8.66
75273;BMP280;63869;52.344;16.928;2024-02-21T09:01:07;100780.81;;;8.12
75273;BMP280;63869;52.344;16.928;2024-02-21T09:03:36;100827.59;;;8.34
75273;BMP280;63869;52.344;16.928;2024-02-21T09:06:02;100796.06;;;8.08
75273;BMP280;63869;52.344;16.928;2024-02-21T09:08:27;100794.91;;;8.16
75273;BMP280;63869;52.344;16.928;2024-02-21T09:10:54;100777.44;;;8.11
75273;BMP280;63869;52.344;16.928;2024-02-21T09:13:19;100848.84;;;8.77
75273;BMP280;63869;52.344;16.928;2024-02-21T09:15:45;100793.34;;;8.50
75273;BMP280;63869;52.344;16.928;2024-02-21T09:18:10;100789.53;;;8.48
75273;BMP280;63869;52.344;16.928;2024-02-21T09:20:36;100783.09;;;8.42
75273;BMP280;63869;52.344;16.928;2024-02-21T09:23:01;100855.66;;;8.95
75273;BMP280;63869;52.344;16.928;2024-02-21T09:25:26;100862.13;;;8.98
75273;BMP280;63869;52.344;16.928;2024-02-21T09:27:53;100819.13;;;8.82
75273;BMP280;63869;52.344;16.928;2024-02-21T09:30:19;100836.59;;;8.97
75273;BMP280;63869;52.344;16.928;2024-02-21T09:32:44;100767.44;;;8.61
75273;BMP280;63869;52.344;16.928;2024-02-21T09:35:10;100830.44;;;9.18
75273;BMP280;63869;52.344;16.928;2024-02-21T09:37:35;100839.56;;;9.20
75273;BMP280;63869;52.344;16.928;2024-02-21T09:40:01;100841.81;;;9.22
75273;BMP280;63869;52.344;16.928;2024-02-21T09:45:00;100847.22;;;9.11
75273;BMP280;63869;52.344;16.928;2024-02-21T09:47:37;100841.16;;;9.04
75273;BMP280;63869;52.344;16.928;2024-02-21T09:50:04;100845.75;;;9.00
75273;BMP280;63869;52.344;16.928;2024-02-21T09:52:30;100806.22;;;8.73
75273;BMP280;63869;52.344;16.928;2024-02-21T09:54:58;100851.09;;;9.00
75273;BMP280;63869;52.344;16.928;2024-02-21T09:57:23;100831.34;;;8.83
75273;BMP280;63869;52.344;16.928;2024-02-21T09:59:52;100824.47;;;8.85
75273;BMP280;63869;52.344;16.928;2024-02-21T10:02:18;100819.53;;;8.73
75273;BMP280;63869;52.344;16.928;2024-02-21T10:07:18;100839.34;;;8.83
75273;BMP280;63869;52.344;16.928;2024-02-21T10:09:48;100794.88;;;8.44
75273;BMP280;63869;52.344;16.928;2024-02-21T10:12:13;100820.34;;;8.63
75273;BMP280;63869;52.344;16.928;2024-02-21T10:14:39;100784.22;;;8.34
75273;BMP280;63869;52.344;16.928;2024-02-21T10:17:04;100833.63;;;8.67
75273;BMP280;63869;52.344;16.928;2024-02-21T10:19:34;100836.69;;;8.72
75273;BMP280;63869;52.344;16.928;2024-02-21T10:22:07;100840.09;;;8.76
75273;BMP280;63869;52.344;16.928;2024-02-21T10:24:34;100839.69;;;8.88
75273;BMP280;63869;52.344;16.928;2024-02-21T10:27:06;100836.59;;;8.97
75273;BMP280;63869;52.344;16.928;2024-02-21T10:29:38;100845.31;;;9.12
75273;BMP280;63869;52.344;16.928;2024-02-21T10:32:12;100823.97;;;9.19
75273;BMP280;63869;52.344;16.928;2024-02-21T10:34:39;100828.09;;;9.30
75273;BMP280;63869;52.344;16.928;2024-02-21T10:37:06;100812.75;;;9.42
75273;BMP280;63869;52.344;16.928;2024-02-21T10:39:33;100833.22;;;9.66
75273;BMP280;63869;52.344;16.928;2024-02-21T10:42:01;100813.44;;;9.56
75273;BMP280;63869;52.344;16.928;2024-02-21T10:44:29;100814.84;;;9.72
75273;BMP280;63869;52.344;16.928;2024-02-21T10:50:12;100797.53;;;9.90
75273;BMP280;63869;52.344;16.928;2024-02-21T10:52:48;100774.13;;;10.05
75273;BMP280;63869;52.344;16.928;2024-02-21T10:55:20;100798.91;;;10.47
75273;BMP280;63869;52.344;16.928;2024-02-21T10:57:49;100772.50;;;10.52
75273;BMP280;63869;52.344;16.928;2024-02-21T11:00:17;100775.59;;;10.78
75273;BMP280;63869;52.344;16.928;2024-02-21T11:02:43;100755.06;;;10.71
75273;BMP280;63869;52.344;16.928;2024-02-21T11:05:09;100785.31;;;10.95
75273;BMP280;63869;52.344;16.928;2024-02-21T11:07:37;100768.25;;;10.85
75273;BMP280;63869;52.344;16.928;2024-02-21T11:10:02;100751.25;;;10.72
75273;BMP280;63869;52.344;16.928;2024-02-21T11:12:32;100769.38;;;10.88
75273;BMP280;63869;52.344;16.928;2024-02-21T11:15:05;100756.59;;;10.72
75273;BMP280;63869;52.344;16.928;2024-02-21T11:17:31;100742.06;;;10.69
75273;BMP280;63869;52.344;16.928;2024-02-21T11:19:56;100724.53;;;10.68
75273;BMP280;63869;52.344;16.928;2024-02-21T11:22:22;100735.16;;;10.76
75273;BMP280;63869;52.344;16.928;2024-02-21T11:24:49;100754.84;;;10.89
75273;BMP280;63869;52.344;16.928;2024-02-21T11:27:16;100725.25;;;10.73
75273;BMP280;63869;52.344;16.928;2024-02-21T11:29:46;100732.22;;;10.66
75273;BMP280;63869;52.344;16.928;2024-02-21T11:32:17;100744.81;;;10.66
75273;BMP280;63869;52.344;16.928;2024-02-21T11:35:03;100730.69;;;10.65
75273;BMP280;63869;52.344;16.928;2024-02-21T11:37:34;100689.69;;;10.45
75273;BMP280;63869;52.344;16.928;2024-02-21T11:40:02;100687.44;;;10.44
75273;BMP280;63869;52.344;16.928;2024-02-21T11:42:29;100639.38;;;10.10
75273;BMP280;63869;52.344;16.928;2024-02-21T11:44:56;100722.72;;;10.62
75273;BMP280;63869;52.344;16.928;2024-02-21T11:47:24;100709.41;;;10.58
75273;BMP280;63869;52.344;16.928;2024-02-21T11:49:49;100703.31;;;10.54
75273;BMP280;63869;52.344;16.928;2024-02-21T11:52:18;100709.13;;;10.49
75273;BMP280;63869;52.344;16.928;2024-02-21T11:54:45;100684.53;;;10.31
75273;BMP280;63869;52.344;16.928;2024-02-21T11:57:11;100688.00;;;10.28
75273;BMP280;63869;52.344;16.928;2024-02-21T11:59:36;100669.47;;;10.14
75273;BMP280;63869;52.344;16.928;2024-02-21T12:02:02;100709.59;;;10.44
75273;BMP280;63869;52.344;16.928;2024-02-21T12:04:31;100692.84;;;10.36
75273;BMP280;63869;52.344;16.928;2024-02-21T12:06:57;100685.41;;;10.21
75273;BMP280;63869;52.344;16.928;2024-02-21T12:09:23;100689.19;;;10.23
75273;BMP280;63869;52.344;16.928;2024-02-21T12:11:59;100700.22;;;10.29
75273;BMP280;63869;52.344;16.928;2024-02-21T12:14:25;100699.59;;;10.18
75273;BMP280;63869;52.344;16.928;2024-02-21T12:16:51;100708.28;;;10.22
75273;BMP280;63869;52.344;16.928;2024-02-21T12:19:17;100682.53;;;10.05
75273;BMP280;63869;52.344;16.928;2024-02-21T12:21:43;100694.66;;;10.13
75273;BMP280;63869;52.344;16.928;2024-02-21T12:24:16;100706.44;;;10.19
75273;BMP280;63869;52.344;16.928;2024-02-21T12:26:42;100681.31;;;10.13
75273;BMP280;63869;52.344;16.928;2024-02-21T12:29:08;100691.09;;;10.23
75273;BMP280;63869;52.344;16.928;2024-02-21T12:31:39;100615.34;;;9.76
75273;BMP280;63869;52.344;16.928;2024-02-21T12:34:05;100627.09;;;9.82
75273;BMP280;63869;52.344;16.928;2024-02-21T12:36:31;100686.25;;;10.14
75273;BMP280;63869;52.344;16.928;2024-02-21T12:38:57;100658.88;;;10.03
75273;BMP280;63869;52.344;16.928;2024-02-21T12:41:22;100679.41;;;10.13
75273;BMP280;63869;52.344;16.928;2024-02-21T12:43:48;100647.19;;;9.93
75273;BMP280;63869;52.344;16.928;2024-02-21T12:46:13;100665.72;;;10.08
75273;BMP280;63869;52.344;16.928;2024-02-21T12:48:40;100659.72;;;10.00
75273;BMP280;63869;52.344;16.928;2024-02-21T12:51:05;100606.53;;;9.79
75273;BMP280;63869;52.344;16.928;2024-02-21T12:53:32;100648.56;;;10.09
75273;BMP280;63869;52.344;16.928;2024-02-21T12:55:57;100640.56;;;10.05
75273;BMP280;63869;52.344;16.928;2024-02-21T12:58:23;100640.44;;;10.16
75273;BMP280;63869;52.344;16.928;2024-02-21T13:00:48;100636.97;;;10.19
75273;BMP280;63869;52.344;16.928;2024-02-21T13:03:14;100641.84;;;10.27
75273;BMP280;63869;52.344;16.928;2024-02-21T13:05:55;100630.13;;;10.18
75273;BMP280;63869;52.344;16.928;2024-02-21T13:08:23;100575.22;;;9.83
75273;BMP280;63869;52.344;16.928;2024-02-21T13:10:50;100632.13;;;10.10
75273;BMP280;63869;52.344;16.928;2024-02-21T13:13:15;100644.91;;;10.26
75273;BMP280;63869;52.344;16.928;2024-02-21T13:15:40;100633.88;;;10.20
75273;BMP280;63869;52.344;16.928;2024-02-21T13:18:08;100618.28;;;10.19
75273;BMP280;63869;52.344;16.928;2024-02-21T13:20:42;100587.19;;;10.02
75273;BMP280;63869;52.344;16.928;2024-02-21T13:23:12;100600.84;;;10.11
75273;BMP280;63869;52.344;16.928;2024-02-21T13:25:38;100613.72;;;10.16
75273;BMP280;63869;52.344;16.928;2024-02-21T13:28:04;100630.28;;;10.34
75273;BMP280;63869;52.344;16.928;2024-02-21T13:30:30;100533.34;;;9.76
75273;BMP280;63869;52.344;16.928;2024-02-21T13:32:55;100630.97;;;10.42
75273;BMP280;63869;52.344;16.928;2024-02-21T13:35:21;100587.97;;;10.29
75273;BMP280;63869;52.344;16.928;2024-02-21T13:37:46;100585.84;;;10.17
75273;BMP280;63869;52.344;16.928;2024-02-21T13:40:14;100569.94;;;10.10
75273;BMP280;63869;52.344;16.928;2024-02-21T13:42:39;100607.31;;;10.36
75273;BMP280;63869;52.344;16.928;2024-02-21T13:45:06;100607.31;;;10.40
75273;BMP280;63869;52.344;16.928;2024-02-21T13:47:33;100561.50;;;10.11
75273;BMP280;63869;52.344;16.928;2024-02-21T13:49:58;100580.50;;;10.17
75273;BMP280;63869;52.344;16.928;2024-02-21T13:52:27;100537.00;;;9.86
75273;BMP280;63869;52.344;16.928;2024-02-21T13:54:52;100574.88;;;10.08
75273;BMP280;63869;52.344;16.928;2024-02-21T13:57:18;100613.50;;;10.33
75273;BMP280;63869;52.344;16.928;2024-02-21T13:59:43;100613.91;;;10.32